It's Monday,
October 14th, 2019
User not logged in
[Run Race Header Image][Run Race logo]
  
Race webcasting is attempted by race directors and their support staff. Please remember that conditions under which they're working may make it difficult to post timely webcast updates... your interest and patience is appreciated!
Race Information
Race Name:2nd Annual Indiana Trail 100
Location:Albion
State:Indiana, United States
 button: button: Webcast Autoplay
Event Information
Name of Event:100 Mile Trail
Distance:100 Miles
Started Date/Time:Saturday April 26th, 2014, 5:59:34.15 am
button: Assign Numbers  
Checkpoint:JD4
Distance:58.81 Miles
Gun Start Time:Saturday April 26th, 2014 5:59:34.15 am
Calculate Chip Start Time:< not set >
Y or N... Calculate splits based upon participant chip start time?
Allow Early Chip Start Time:< not set >
Y or N... Allow participants a chip start time prior to gun start?
Pos Race
Number
NameAgeSexTimePace 
1166Jim Trout44M9:23:20.69:34.7Sat Apr 26th, 2014 3:22:54 pm
2141Shan Riggs35M9:27:42.09:39.2Sat Apr 26th, 2014 3:27:16 pm
314John Bertram51M9:47:33.49:59.4Sat Apr 26th, 2014 3:47:07 pm
4148Travis Shields37M10:04:44.910:17.0Sat Apr 26th, 2014 4:04:19 pm
541Paul Dott31M10:07:15.410:19.5Sat Apr 26th, 2014 4:06:49 pm
6182Craig Wheeler52M10:14:08.310:26.6Sat Apr 26th, 2014 4:13:42 pm
734Vincent Corona30M10:16:31.510:29.0Sat Apr 26th, 2014 4:16:05 pm
8151Jen Skelly34F10:17:42.810:30.2Sat Apr 26th, 2014 4:17:16 pm
9158Paul Stofko38M10:19:53.510:32.4Sat Apr 26th, 2014 4:19:27 pm
10149Todd Siebert32M10:24:36.410:37.2Sat Apr 26th, 2014 4:24:10 pm
1126Jessica Campbell21F10:29:49.810:42.6Sat Apr 26th, 2014 4:29:23 pm
1279David E. Jackson36M10:58:06.011:11.4Sat Apr 26th, 2014 4:57:40 pm
1328Tony Cesario50M10:58:47.811:12.1Sat Apr 26th, 2014 4:58:21 pm
14140Kirk Ridenour54M11:10:20.811:23.9Sat Apr 26th, 2014 5:09:54 pm
15127Daniel Paige34M11:10:21.211:23.9Sat Apr 26th, 2014 5:09:55 pm
16161Mika Thewes22F11:14:24.711:28.1Sat Apr 26th, 2014 5:13:58 pm
17129Ben Pearce19M11:16:58.011:30.7Sat Apr 26th, 2014 5:16:32 pm
1820Erin Brady42F11:21:40.511:35.5Sat Apr 26th, 2014 5:21:14 pm
1987Ryan "Stormy" Knight37M11:32:10.011:46.2Sat Apr 26th, 2014 5:31:44 pm
2068Shawn Hawk49M11:34:59.711:49.1Sat Apr 26th, 2014 5:34:33 pm
21104David Mentjes44M11:37:03.311:51.2Sat Apr 26th, 2014 5:36:37 pm
22184Kinga Kokoc35F11:51:43.512:06.1Sat Apr 26th, 2014 5:51:17 pm
23162Mark Thill38M11:55:59.512:10.5Sat Apr 26th, 2014 5:55:33 pm
2450Linda Keuneke50F11:56:29.712:11.0Sat Apr 26th, 2014 5:56:03 pm
2544Tanya Eggert44F11:59:10.512:13.7Sat Apr 26th, 2014 5:58:44 pm
26145James Schroeder37M12:00:01.812:14.6Sat Apr 26th, 2014 5:59:35 pm
27113SIAMAK MOSTOUFI39M12:02:02.712:16.7Sat Apr 26th, 2014 6:01:36 pm
2824todd brown45M12:02:03.012:16.7Sat Apr 26th, 2014 6:01:37 pm
2954Tom Fifer51M12:03:45.512:18.4Sat Apr 26th, 2014 6:03:19 pm
30133Richard Plezia55M12:06:28.712:21.2Sat Apr 26th, 2014 6:06:02 pm
3146Mike Else45M12:08:15.212:23.0Sat Apr 26th, 2014 6:07:49 pm
3263Jerret Halter32M12:09:48.512:24.6Sat Apr 26th, 2014 6:09:22 pm
33183Anastasia Andrychowski34F12:09:50.112:24.6Sat Apr 26th, 2014 6:09:24 pm
3457Mark Gavorski48M12:10:10.812:25.0Sat Apr 26th, 2014 6:09:44 pm
3536John Cushma40M12:16:41.012:31.6Sat Apr 26th, 2014 6:16:15 pm
36126Julie Pagel29F12:18:08.012:33.1Sat Apr 26th, 2014 6:17:42 pm
37103Chris McMahon54M12:18:43.912:33.7Sat Apr 26th, 2014 6:18:18 pm
38114Larry Mullinnix49M12:21:03.512:36.1Sat Apr 26th, 2014 6:20:37 pm
39125Jeff Oliver40M12:22:11.612:37.2Sat Apr 26th, 2014 6:21:45 pm
40115Carolynn Nauta32F12:22:42.412:37.7Sat Apr 26th, 2014 6:22:16 pm
4172Rich Henderson58M12:23:34.012:38.6Sat Apr 26th, 2014 6:23:08 pm
42154Mike Smith56M12:23:39.212:38.7Sat Apr 26th, 2014 6:23:13 pm
43134dave potter49M12:28:10.212:43.3Sat Apr 26th, 2014 6:27:44 pm
44123Reggie O'HARA45M12:31:02.612:46.2Sat Apr 26th, 2014 6:30:36 pm
45116David Nelson26M12:33:07.812:48.4Sat Apr 26th, 2014 6:32:41 pm
4640Noe j Dominguez45M12:35:19.312:50.6Sat Apr 26th, 2014 6:34:53 pm
4762Martin Guthrie47M12:35:34.112:50.9Sat Apr 26th, 2014 6:35:08 pm
485LEE ANDERSON56M12:37:32.912:52.9Sat Apr 26th, 2014 6:37:07 pm
49177Eric Fritz46M12:37:55.612:53.3Sat Apr 26th, 2014 6:37:29 pm
50108Joshua Mock32M12:38:20.612:53.7Sat Apr 26th, 2014 6:37:54 pm
51180Michael Linkogel43M12:46:08.513:01.6Sat Apr 26th, 2014 6:45:42 pm
5242Michael Dowdell38M12:47:23.713:02.9Sat Apr 26th, 2014 6:46:57 pm
53147mark sheeran54M12:47:45.813:03.3Sat Apr 26th, 2014 6:47:20 pm
54107Kirk Misaka55M12:50:05.513:05.7Sat Apr 26th, 2014 6:49:39 pm
5556Helen Garen49F12:54:47.213:10.5Sat Apr 26th, 2014 6:54:21 pm
56156Phil Stapert47M12:57:22.313:13.1Sat Apr 26th, 2014 6:56:56 pm
578Brian Barger53M12:57:49.913:13.6Sat Apr 26th, 2014 6:57:24 pm
58181Rene Samano28M12:58:41.013:14.4Sat Apr 26th, 2014 6:58:15 pm
59169Chris Walker34M13:05:10.713:21.1Sat Apr 26th, 2014 7:04:44 pm
6091Bill Kulwicki55M13:11:31.113:27.5Sat Apr 26th, 2014 7:11:05 pm
6166Dick Canterbury66M13:11:40.513:27.7Sat Apr 26th, 2014 7:11:14 pm
62178Joe Cuthbertson39M13:14:57.013:31.0Sat Apr 26th, 2014 7:14:31 pm
6376Scott Hudson46M13:16:15.713:32.4Sat Apr 26th, 2014 7:15:49 pm
6483Chris Junken35M13:16:33.013:32.7Sat Apr 26th, 2014 7:16:07 pm
6539Nathan DeWall34M13:21:41.913:37.9Sat Apr 26th, 2014 7:21:16 pm
66143Matthew Santner37M13:23:30.313:39.8Sat Apr 26th, 2014 7:23:04 pm
67171Marci Wease37F13:26:43.313:43.0Sat Apr 26th, 2014 7:26:17 pm
68165Judd Trayling40M13:27:53.913:44.2Sat Apr 26th, 2014 7:27:28 pm
6921Bob Brashear55M13:29:25.213:45.8Sat Apr 26th, 2014 7:28:59 pm
7025Aaron Butler32M13:36:18.113:52.8Sat Apr 26th, 2014 7:35:52 pm
71159Steve Sunbury44M13:36:43.013:53.2Sat Apr 26th, 2014 7:36:17 pm
72174Randall Yost55M13:48:33.714:05.3Sat Apr 26th, 2014 7:48:07 pm
73135Rob Putz48M13:51:08.814:08.0Sat Apr 26th, 2014 7:50:42 pm
7452Jamie Farley35M13:55:11.314:12.1Sat Apr 26th, 2014 7:54:45 pm
75130Alfredo ''Moose'' Pedro45M13:57:25.514:14.4Sat Apr 26th, 2014 7:56:59 pm
76146Rob Schultz47M13:57:26.114:14.4Sat Apr 26th, 2014 7:57:00 pm
7773Jeff Hogan45M13:58:00.214:15.0Sat Apr 26th, 2014 7:57:34 pm
7816toni bohannon46F14:02:11.014:19.2Sat Apr 26th, 2014 8:01:45 pm
7917Andrew Borst43M14:03:57.914:21.0Sat Apr 26th, 2014 8:03:32 pm
8082Juan Juarez42M14:04:05.114:21.2Sat Apr 26th, 2014 8:03:39 pm
814Jonathon Amlung44M14:04:05.714:21.2Sat Apr 26th, 2014 8:03:39 pm
82121Mark Norfleet57M14:06:04.914:23.2Sat Apr 26th, 2014 8:05:39 pm
8364Cindylee Torres54F14:06:32.914:23.7Sat Apr 26th, 2014 8:06:07 pm
8478Lauren Idzik43F14:07:53.714:25.1Sat Apr 26th, 2014 8:07:27 pm
8593John Leighton53M14:08:31.014:25.7Sat Apr 26th, 2014 8:08:05 pm
862Kurt Adams35M14:12:34.114:29.8Sat Apr 26th, 2014 8:12:08 pm
8799Daniel Maddox38M14:19:14.514:36.6Sat Apr 26th, 2014 8:18:48 pm
8874Alex "ACE" Honigford33M14:21:41.014:39.1Sat Apr 26th, 2014 8:21:15 pm
8969Kent Heck52M14:24:40.614:42.2Sat Apr 26th, 2014 8:24:14 pm
90163Derek Tinnin46M14:27:24.814:45.0Sat Apr 26th, 2014 8:26:58 pm
916Ric Angara43M14:29:24.714:47.0Sat Apr 26th, 2014 8:28:58 pm
9248Karen Erba44F14:30:16.814:47.9Sat Apr 26th, 2014 8:29:50 pm
93124Ethan Olds24M14:42:11.115:00.0Sat Apr 26th, 2014 8:41:45 pm
9431Mark Coates33M14:45:56.115:03.9Sat Apr 26th, 2014 8:45:30 pm
9586John Klarquist49M14:46:14.615:04.2Sat Apr 26th, 2014 8:45:48 pm
96120Caleb Nolen28M14:48:18.115:06.3Sat Apr 26th, 2014 8:47:52 pm
97105Craig Meseko29M14:53:05.615:11.2Sat Apr 26th, 2014 8:52:39 pm
9870Mike Heider54M14:56:42.715:14.9Sat Apr 26th, 2014 8:56:16 pm
9933Aaron Conner41M14:59:19.215:17.5Sat Apr 26th, 2014 8:58:53 pm
1003Justin Alford40M14:59:25.715:17.6Sat Apr 26th, 2014 8:58:59 pm
10138James Davidson51M15:06:41.315:25.0Sat Apr 26th, 2014 9:06:15 pm
10212Richard Barton61M15:12:14.815:30.7Sat Apr 26th, 2014 9:11:48 pm
1039Crystal Barton38F15:12:15.415:30.7Sat Apr 26th, 2014 9:11:49 pm
10435Joe Cortez49M15:14:21.215:32.9Sat Apr 26th, 2014 9:13:55 pm
105111James Cooper44M15:15:47.615:34.3Sat Apr 26th, 2014 9:15:21 pm
106132Catherine Pinkston29F15:16:45.115:35.3Sat Apr 26th, 2014 9:16:19 pm
107122Terry Null55M15:16:45.815:35.3Sat Apr 26th, 2014 9:16:19 pm
10853Ramon Ferrer Jr34M15:16:45.915:35.3Sat Apr 26th, 2014 9:16:20 pm
10911Mark Barton57M15:20:29.515:39.1Sat Apr 26th, 2014 9:20:03 pm
11010Kathy Barton57F15:20:32.715:39.2Sat Apr 26th, 2014 9:20:06 pm
111101Sondra Marker50F15:20:36.415:39.2Sat Apr 26th, 2014 9:20:10 pm
112150Robert Siscoe59M15:22:58.015:41.6Sat Apr 26th, 2014 9:22:32 pm
113176Stan Zygmunt51M15:26:26.215:45.2Sat Apr 26th, 2014 9:26:00 pm
11418James Bowers36M15:26:27.715:45.2Sat Apr 26th, 2014 9:26:01 pm
115167Ali Turfe50M15:33:34.215:52.5Sat Apr 26th, 2014 9:33:08 pm
11647David Englund46M15:40:11.815:59.2Sat Apr 26th, 2014 9:39:46 pm
117137Jamie Quarandillo40F15:46:04.416:05.2Sat Apr 26th, 2014 9:45:38 pm
118102Rick McClain52M15:51:35.016:10.8Sat Apr 26th, 2014 9:51:09 pm
11981MELISSA JOYCE-HASSAN49F15:58:47.216:18.2Sat Apr 26th, 2014 9:58:21 pm
12023Kimmie Brown34F16:10:30.116:30.1Sat Apr 26th, 2014 10:10:04 pm
121173Michael Wolff41M16:11:49.516:31.5Sat Apr 26th, 2014 10:11:23 pm
122138Frank Rampton57M16:27:29.816:47.5Sat Apr 26th, 2014 10:27:03 pm
12315sandra bocchicchio41F16:28:18.716:48.3Sat Apr 26th, 2014 10:27:52 pm
124172Kenneth Westerman55M16:28:19.316:48.3Sat Apr 26th, 2014 10:27:53 pm
12597Suann Lundsberg38F16:37:43.916:57.9Sat Apr 26th, 2014 10:37:18 pm

Event Information
Name of Event:50 Mile Trail
Distance:50 Miles
Started Date/Time:Saturday April 26th, 2014, 5:59:34.15 am
button: Assign Numbers 
2004-2019 : All rights reserved
Terms and Conditions